Time;durP1;ratioP1;P1;durP2;ratioP2;P2;SDS_P1;SDS_P2;PMS_P1;PMS_P2;Temp;Humidity;BMP_temperature;BMP_pressure;BME280_temperature;BME280_humidity;BME280_pressure;Samples;Min_cycle;Max_cycle;Signal;HPM_P1;HPM_P2
2020/12/09 00:00:33;;;;;;;24.57;19.60;;;3.60;99.90;;;;;;5052268;28;20175;-64
2020/12/09 00:02:59;;;;;;;22.87;19.37;;;3.70;99.90;;;;;;5052629;28;20183;-65
2020/12/09 00:05:24;;;;;;;22.40;19.97;;;3.70;99.90;;;;;;5052732;28;20171;-65
2020/12/09 00:07:50;;;;;;;24.00;19.77;;;3.70;99.90;;;;;;5052540;28;20676;-64
2020/12/09 00:10:16;;;;;;;23.60;18.93;;;3.70;99.90;;;;;;5052168;28;20429;-65
2020/12/09 00:12:41;;;;;;;26.90;20.73;;;3.80;99.90;;;;;;5052498;28;20160;-64
2020/12/09 00:15:08;;;;;;;23.10;19.53;;;3.80;99.90;;;;;;5052500;28;20166;-64
2020/12/09 00:17:33;;;;;;;23.87;21.20;;;3.80;99.90;;;;;;5052615;28;20192;-65
2020/12/09 00:19:59;;;;;;;22.07;18.90;;;3.80;99.90;;;;;;5052257;28;20438;-64
2020/12/09 00:22:24;;;;;;;25.27;21.03;;;3.90;99.90;;;;;;5052333;28;20164;-64
2020/12/09 00:24:52;;;;;;;24.60;22.00;;;4.00;99.90;;;;;;5052228;28;20229;-65
2020/12/09 00:27:17;;;;;;;25.03;19.50;;;4.00;99.90;;;;;;5052330;28;20160;-64
2020/12/09 00:29:43;;;;;;;20.97;18.80;;;4.10;99.90;;;;;;5052419;28;20395;-65
2020/12/09 00:32:08;;;;;;;22.33;18.10;;;4.00;99.90;;;;;;5056196;28;20164;-65
2020/12/09 00:34:34;;;;;;;21.17;18.67;;;4.10;99.90;;;;;;5056857;28;20624;-64
2020/12/09 00:36:59;;;;;;;22.30;18.10;;;4.10;99.90;;;;;;5056098;28;20521;-65
2020/12/09 00:39:25;;;;;;;21.43;18.83;;;4.00;99.90;;;;;;5056240;28;20238;-64
2020/12/09 00:41:50;;;;;;;22.80;18.73;;;4.00;99.90;;;;;;5055422;28;20764;-64
2020/12/09 00:44:16;;;;;;;22.73;19.43;;;4.10;99.90;;;;;;5055955;28;20612;-64
2020/12/09 00:46:41;;;;;;;20.67;18.47;;;4.10;99.90;;;;;;5055897;28;20535;-65
2020/12/09 00:49:07;;;;;;;21.87;18.67;;;4.00;99.90;;;;;;5056060;28;20192;-65
2020/12/09 00:51:32;;;;;;;20.73;18.40;;;4.00;99.90;;;;;;5055505;28;20167;-65
2020/12/09 00:53:58;;;;;;;20.03;17.90;;;4.00;99.90;;;;;;5055912;28;20608;-65
2020/12/09 00:56:23;;;;;;;21.97;19.57;;;4.00;99.90;;;;;;5055830;28;20266;-64
2020/12/09 00:58:49;;;;;;;21.40;18.77;;;4.00;99.90;;;;;;5055760;28;20578;-65
2020/12/09 01:01:14;;;;;;;22.70;20.20;;;4.00;99.90;;;;;;5055218;28;20188;-65
2020/12/09 01:03:40;;;;;;;21.40;19.10;;;4.10;99.90;;;;;;5055844;28;20167;-64
2020/12/09 01:06:07;;;;;;;22.50;18.43;;;4.10;99.90;;;;;;5055585;28;20206;-65
2020/12/09 01:08:34;;;;;;;21.03;18.13;;;4.10;99.90;;;;;;5055754;28;20553;-65
2020/12/09 01:11:00;;;;;;;21.20;18.47;;;4.10;99.90;;;;;;5055275;28;20449;-65
2020/12/09 01:13:26;;;;;;;20.67;18.53;;;4.10;99.90;;;;;;5035657;28;20395;-65
2020/12/09 01:15:51;;;;;;;22.70;18.63;;;4.10;99.90;;;;;;5037056;28;20541;-64
2020/12/09 01:18:17;;;;;;;21.53;19.20;;;4.10;99.90;;;;;;5055423;28;20161;-64
2020/12/09 01:20:43;;;;;;;19.57;17.50;;;4.20;99.90;;;;;;5055341;28;20193;-64
2020/12/09 01:23:08;;;;;;;25.17;19.40;;;4.20;99.90;;;;;;5054896;28;20187;-65
2020/12/09 01:25:34;;;;;;;22.63;18.90;;;4.20;99.90;;;;;;5055189;28;20388;-64
2020/12/09 01:28:01;;;;;;;20.80;18.60;;;4.30;99.90;;;;;;5055070;28;20188;-65
2020/12/09 01:30:28;;;;;;;26.93;18.50;;;4.30;99.90;;;;;;5055215;28;20152;-65
2020/12/09 01:32:54;;;;;;;20.90;18.70;;;4.30;99.90;;;;;;5054726;28;20515;-65
2020/12/09 01:35:20;;;;;;;20.93;18.07;;;4.30;99.90;;;;;;5055109;28;20399;-64
2020/12/09 01:37:45;;;;;;;25.07;20.13;;;4.30;99.90;;;;;;5054920;28;20473;-64
2020/12/09 01:40:11;;;;;;;20.33;18.13;;;4.30;99.90;;;;;;5054772;28;20176;-65
2020/12/09 01:42:36;;;;;;;20.80;18.60;;;4.30;99.90;;;;;;5054555;28;20233;-65
2020/12/09 01:45:03;;;;;;;20.43;18.20;;;4.30;99.90;;;;;;5055076;28;20617;-65
2020/12/09 01:47:29;;;;;;;20.33;18.23;;;4.30;99.90;;;;;;5054973;28;20214;-64
2020/12/09 01:49:56;;;;;;;20.63;18.43;;;4.30;99.90;;;;;;5054411;28;20432;-64
2020/12/09 01:52:22;;;;;;;21.47;19.10;;;4.30;99.90;;;;;;5054797;28;20391;-64
2020/12/09 01:54:50;;;;;;;19.97;17.73;;;4.40;99.90;;;;;;5054734;28;20399;-65
2020/12/09 01:57:15;;;;;;;20.57;18.03;;;4.40;99.90;;;;;;5054444;28;20415;-65
2020/12/09 01:59:41;;;;;;;21.47;18.77;;;4.40;99.90;;;;;;5054636;28;20420;-65
2020/12/09 02:02:08;;;;;;;21.97;19.10;;;4.40;99.90;;;;;;5054700;28;20158;-64
2020/12/09 02:04:34;;;;;;;20.50;18.20;;;4.40;99.90;;;;;;5054517;28;20494;-64
2020/12/09 02:07:01;;;;;;;19.73;17.00;;;4.40;99.90;;;;;;5054263;28;20431;-65
2020/12/09 02:09:27;;;;;;;22.03;19.80;;;4.50;99.90;;;;;;5054099;28;20800;-65
2020/12/09 02:11:54;;;;;;;19.67;17.53;;;4.50;99.90;;;;;;5054295;28;20871;-65
2020/12/09 02:14:20;;;;;;;26.40;21.93;;;4.50;99.90;;;;;;5054746;28;20394;-64
2020/12/09 02:16:51;;;;;;;31.40;24.23;;;4.50;99.90;;;;;;5054313;28;20417;-65
2020/12/09 02:19:17;;;;;;;38.83;28.97;;;4.50;99.90;;;;;;5053968;28;20868;-64
2020/12/09 02:21:42;;;;;;;37.27;26.20;;;4.60;99.90;;;;;;5054019;28;20415;-67
2020/12/09 02:24:08;;;;;;;43.80;28.70;;;4.60;99.90;;;;;;5054098;28;20306;-65
2020/12/09 02:26:33;;;;;;;41.80;28.90;;;4.60;99.90;;;;;;5053973;28;20192;-65
2020/12/09 02:28:59;;;;;;;36.17;25.50;;;4.60;99.90;;;;;;5054579;28;20206;-65
2020/12/09 02:31:24;;;;;;;39.30;27.70;;;4.60;99.90;;;;;;5053705;28;20192;-64
2020/12/09 02:33:50;;;;;;;32.60;23.67;;;4.60;99.90;;;;;;5053913;28;20156;-64
2020/12/09 02:36:15;;;;;;;43.30;28.30;;;4.70;99.90;;;;;;5053956;28;20157;-64
2020/12/09 02:38:41;;;;;;;35.20;24.90;;;4.70;99.90;;;;;;5053861;28;20165;-65
2020/12/09 02:41:07;;;;;;;25.60;20.10;;;4.70;99.90;;;;;;5053295;28;20196;-65
2020/12/09 02:43:33;;;;;;;27.93;20.93;;;4.70;99.90;;;;;;5052544;28;20387;-65
2020/12/09 02:45:58;;;;;;;25.20;18.97;;;4.70;99.90;;;;;;5053712;28;20243;-64
2020/12/09 02:48:24;;;;;;;21.93;18.53;;;4.80;99.90;;;;;;5053040;28;20203;-64
2020/12/09 02:50:49;;;;;;;20.07;17.80;;;4.80;99.90;;;;;;5053600;28;20609;-65
2020/12/09 02:53:15;;;;;;;23.10;18.77;;;4.80;99.90;;;;;;5052947;28;20185;-64
2020/12/09 02:55:40;;;;;;;21.63;19.30;;;4.80;99.90;;;;;;5054096;28;20632;-65
2020/12/09 02:58:06;;;;;;;24.07;19.50;;;4.80;99.90;;;;;;5053416;28;20196;-64
2020/12/09 03:00:31;;;;;;;23.53;20.50;;;4.80;99.90;;;;;;5053194;28;20549;-65
2020/12/09 03:02:57;;;;;;;23.20;20.70;;;4.80;99.90;;;;;;5053314;28;20177;-64
2020/12/09 03:05:23;;;;;;;21.93;19.53;;;4.80;99.90;;;;;;5053293;28;20166;-65
2020/12/09 03:07:48;;;;;;;25.63;21.07;;;4.80;99.90;;;;;;5053593;28;20188;-65
2020/12/09 03:10:14;;;;;;;23.73;21.23;;;4.80;99.90;;;;;;5053229;28;20614;-65
2020/12/09 03:12:39;;;;;;;22.03;19.57;;;4.80;99.90;;;;;;5053439;28;20188;-65
2020/12/09 03:15:05;;;;;;;27.90;22.10;;;4.80;99.90;;;;;;5053020;28;20181;-65
2020/12/09 03:17:30;;;;;;;26.63;22.10;;;4.80;99.90;;;;;;5053050;28;20156;-64
2020/12/09 03:19:56;;;;;;;24.30;21.50;;;4.80;99.90;;;;;;5052619;28;20187;-64
2020/12/09 03:22:21;;;;;;;26.90;21.87;;;4.80;99.90;;;;;;5053114;28;20177;-65
2020/12/09 03:24:47;;;;;;;27.37;22.50;;;4.90;99.90;;;;;;5053370;28;20245;-65
2020/12/09 03:27:12;;;;;;;27.67;23.67;;;4.90;99.90;;;;;;5052972;28;20168;-65
2020/12/09 03:29:38;;;;;;;26.10;22.77;;;4.90;99.90;;;;;;5052609;28;20260;-65
2020/12/09 03:32:04;;;;;;;28.80;24.10;;;4.90;99.90;;;;;;5052688;28;20182;-65
2020/12/09 03:34:29;;;;;;;26.60;23.73;;;4.90;99.90;;;;;;5052815;28;20160;-65
2020/12/09 03:36:55;;;;;;;32.87;26.33;;;4.90;99.90;;;;;;5053038;28;20162;-65
2020/12/09 03:39:20;;;;;;;26.17;23.27;;;4.90;99.90;;;;;;5052764;28;20164;-65
2020/12/09 03:41:46;;;;;;;24.40;21.47;;;4.90;99.90;;;;;;5052975;28;20211;-64
2020/12/09 03:44:11;;;;;;;27.00;22.23;;;4.90;99.90;;;;;;5052707;28;20168;-65
2020/12/09 03:46:37;;;;;;;25.70;22.30;;;4.90;99.90;;;;;;5052663;28;20684;-65
2020/12/09 03:49:02;;;;;;;32.27;24.17;;;4.90;99.90;;;;;;5052145;28;20669;-64
2020/12/09 03:51:28;;;;;;;29.20;25.00;;;4.90;99.90;;;;;;5052845;28;20160;-65
2020/12/09 03:53:53;;;;;;;30.73;23.83;;;4.90;99.90;;;;;;5053420;28;20490;-65
2020/12/09 03:56:19;;;;;;;28.87;24.83;;;4.90;99.90;;;;;;5052706;28;20159;-65
2020/12/09 03:58:44;;;;;;;29.30;24.40;;;4.90;99.90;;;;;;5052325;28;20187;-65
2020/12/09 04:01:10;;;;;;;31.37;25.63;;;4.90;99.90;;;;;;5052589;28;20615;-65
2020/12/09 04:03:35;;;;;;;34.77;25.13;;;4.90;99.90;;;;;;5053156;28;20168;-65
2020/12/09 04:06:01;;;;;;;31.43;25.13;;;4.90;99.90;;;;;;5056623;28;20185;-65
2020/12/09 04:08:27;;;;;;;31.93;26.57;;;5.00;99.90;;;;;;5056385;28;20191;-65
2020/12/09 04:10:52;;;;;;;32.37;26.67;;;5.00;99.90;;;;;;5056490;28;20254;-65
2020/12/09 04:13:18;;;;;;;30.83;25.37;;;5.00;99.90;;;;;;5055307;28;20215;-65
2020/12/09 04:15:43;;;;;;;33.57;26.73;;;5.00;99.90;;;;;;5056533;28;20184;-65
2020/12/09 04:18:09;;;;;;;38.03;26.73;;;5.00;99.90;;;;;;5056536;28;20148;-65
2020/12/09 04:20:34;;;;;;;33.00;25.50;;;5.00;99.90;;;;;;5055925;28;20196;-65
2020/12/09 04:23:00;;;;;;;30.70;23.30;;;5.00;99.90;;;;;;5056814;28;20214;-65
2020/12/09 04:25:25;;;;;;;31.40;26.00;;;4.90;99.90;;;;;;5056586;28;20157;-65
2020/12/09 04:27:51;;;;;;;31.23;25.90;;;4.90;99.90;;;;;;5056222;28;20255;-65
2020/12/09 04:30:17;;;;;;;31.97;26.60;;;4.90;99.90;;;;;;5056159;28;20181;-65
2020/12/09 04:32:42;;;;;;;30.43;24.60;;;4.90;99.90;;;;;;5056311;28;20184;-65
2020/12/09 04:35:08;;;;;;;32.23;26.00;;;4.90;99.90;;;;;;5056422;28;20207;-65
2020/12/09 04:37:34;;;;;;;30.53;25.10;;;4.90;99.90;;;;;;5056608;28;20157;-65
2020/12/09 04:39:59;;;;;;;33.87;27.63;;;4.90;99.90;;;;;;5054731;28;20646;-65
2020/12/09 04:42:26;;;;;;;32.50;27.47;;;4.90;99.90;;;;;;5054223;28;20251;-65
2020/12/09 04:44:53;;;;;;;33.73;27.87;;;4.90;99.90;;;;;;5056084;28;20164;-65
2020/12/09 04:47:27;;;;;;;35.33;27.73;;;4.90;99.90;;;;;;5054596;28;20966;-65
2020/12/09 04:53:08;;;;;;;37.80;27.93;;;4.90;99.90;;;;;;5096079;27;20519;-66
2020/12/09 04:55:40;;;;;;;34.60;28.50;;;4.90;99.90;;;;;;5089398;28;20405;-66
2020/12/09 05:00:45;;;;;;;40.50;30.60;;;4.90;99.90;;;;;;5110678;27;20510;-66
2020/12/09 05:03:15;;;;;;;40.53;30.87;;;5.00;99.90;;;;;;5110024;28;20415;-66
2020/12/09 05:05:41;;;;;;;39.00;28.33;;;5.00;99.90;;;;;;5111289;28;20431;-65
2020/12/09 05:08:18;;;;;;;44.83;32.90;;;5.00;99.90;;;;;;5110605;28;20866;-66
2020/12/09 05:10:47;;;;;;;42.30;32.60;;;5.00;99.90;;;;;;5110916;28;20380;-65
2020/12/09 05:13:20;;;;;;;40.43;32.00;;;5.00;99.90;;;;;;5092232;28;20520;-65
2020/12/09 05:15:51;;;;;;;44.53;32.20;;;5.00;99.90;;;;;;5107068;28;20437;-65
2020/12/09 05:18:17;;;;;;;40.40;32.10;;;5.00;99.90;;;;;;5109195;28;20383;-66
2020/12/09 05:20:42;;;;;;;43.60;32.33;;;5.00;99.90;;;;;;5111006;28;20478;-65
2020/12/09 05:23:09;;;;;;;44.33;33.43;;;5.00;99.90;;;;;;5092811;28;20414;-65
2020/12/09 05:25:36;;;;;;;44.80;33.90;;;5.10;99.90;;;;;;5090240;28;20166;-65
2020/12/09 05:28:03;;;;;;;49.20;36.13;;;5.10;99.90;;;;;;5089958;28;20391;-65
2020/12/09 05:30:53;;;;;;;56.30;39.80;;;5.00;99.90;;;;;;5088772;28;20886;-65
2020/12/09 05:33:21;;;;;;;57.03;39.70;;;5.10;99.90;;;;;;5089583;28;20496;-65
2020/12/09 05:35:56;;;;;;;47.63;37.23;;;5.10;99.90;;;;;;5090069;28;20382;-65
2020/12/09 05:38:22;;;;;;;56.30;39.60;;;5.10;99.90;;;;;;5089759;28;20421;-65
2020/12/09 05:40:47;;;;;;;49.20;38.80;;;5.10;99.90;;;;;;5088850;28;20465;-65
2020/12/09 05:43:15;;;;;;;51.30;38.40;;;5.10;99.90;;;;;;5107045;28;20177;-65
2020/12/09 05:45:41;;;;;;;51.03;36.50;;;5.10;99.90;;;;;;5109929;28;20152;-66
2020/12/09 05:48:26;;;;;;;47.93;36.87;;;5.10;99.90;;;;;;5106766;28;20943;-65
2020/12/09 05:50:54;;;;;;;47.90;36.67;;;5.10;99.90;;;;;;5088558;28;20398;-66
2020/12/09 05:53:24;;;;;;;40.00;33.70;;;5.10;99.90;;;;;;5089439;28;20418;-65
2020/12/09 05:55:54;;;;;;;38.00;32.20;;;5.10;99.90;;;;;;5089458;28;20481;-65
2020/12/09 05:58:28;;;;;;;42.80;34.13;;;5.10;99.90;;;;;;5089085;28;20387;-65
2020/12/09 06:01:15;;;;;;;40.40;34.13;;;5.10;99.90;;;;;;5088062;28;20392;-65
2020/12/09 06:03:44;;;;;;;45.43;34.43;;;5.00;99.90;;;;;;5074566;28;20388;-66
2020/12/09 06:08:52;;;;;;;41.30;33.77;;;5.00;99.90;;;;;;5110791;27;20508;-66
2020/12/09 06:11:22;;;;;;;46.00;34.13;;;5.10;99.90;;;;;;5110087;28;20806;-66
2020/12/09 06:13:48;;;;;;;41.07;33.90;;;5.00;99.90;;;;;;5109530;28;20385;-66
2020/12/09 06:16:17;;;;;;;46.33;34.63;;;5.00;99.90;;;;;;5110744;28;20439;-66
2020/12/09 06:18:45;;;;;;;44.43;34.97;;;5.10;99.90;;;;;;5110694;28;20169;-66
2020/12/09 06:21:11;;;;;;;43.60;35.10;;;5.00;99.90;;;;;;5109106;28;20418;-66
2020/12/09 06:23:37;;;;;;;42.73;33.83;;;5.00;99.90;;;;;;5094280;28;20785;-66
2020/12/09 06:26:04;;;;;;;47.40;35.33;;;5.10;99.90;;;;;;5089150;28;20693;-66
2020/12/09 06:28:32;;;;;;;47.17;36.80;;;5.10;99.90;;;;;;5089950;28;20218;-66
2020/12/09 06:31:09;;;;;;;44.43;35.63;;;5.10;99.90;;;;;;5090393;28;20395;-66
2020/12/09 06:33:38;;;;;;;48.77;37.00;;;5.10;99.90;;;;;;5088876;28;20418;-66
2020/12/09 06:36:25;;;;;;;49.90;36.33;;;5.10;99.90;;;;;;5089956;28;20404;-66
2020/12/09 06:44:29;;;;;;;52.13;39.23;;;5.10;99.90;;;;;;5130564;27;20569;-65
2020/12/09 06:46:55;;;;;;;51.37;37.47;;;5.10;99.90;;;;;;5131329;27;20747;-67
2020/12/09 06:54:48;;;;;;;54.97;41.17;;;5.10;99.90;;;;;;5110847;27;20511;-66
2020/12/09 07:00:15;;;;;;;52.03;39.57;;;5.00;99.90;;;;;;5106370;27;20520;-65
2020/12/09 07:02:42;;;;;;;54.67;40.30;;;5.10;99.90;;;;;;5089700;28;20394;-66
2020/12/09 07:05:12;;;;;;;49.90;39.20;;;5.10;99.90;;;;;;5090354;28;20491;-65
2020/12/09 07:13:03;;;;;;;46.67;37.17;;;5.10;99.90;;;;;;5109868;27;20518;-66
2020/12/09 07:15:28;;;;;;;52.40;40.67;;;5.10;99.90;;;;;;5090142;28;20845;-65
2020/12/09 07:17:55;;;;;;;49.43;37.97;;;5.10;99.90;;;;;;5090211;28;20446;-66
2020/12/09 07:20:20;;;;;;;50.23;38.20;;;5.10;99.90;;;;;;5087156;28;20680;-65
2020/12/09 07:22:46;;;;;;;57.43;39.47;;;5.10;99.90;;;;;;5089559;28;20410;-66
2020/12/09 07:25:11;;;;;;;49.63;38.00;;;5.10;99.90;;;;;;5088291;28;20173;-65
2020/12/09 07:27:38;;;;;;;52.43;40.37;;;5.10;99.90;;;;;;5081484;28;20173;-65
2020/12/09 07:30:08;;;;;;;56.67;42.50;;;5.10;99.90;;;;;;5082335;28;20192;-65
2020/12/09 07:32:34;;;;;;;56.50;41.53;;;5.10;99.90;;;;;;5057614;28;20805;-66
2020/12/09 07:35:03;;;;;;;58.13;40.30;;;5.10;99.90;;;;;;5089714;28;20477;-65
2020/12/09 07:37:32;;;;;;;55.53;40.77;;;5.10;99.90;;;;;;5089523;28;20407;-66
2020/12/09 07:40:01;;;;;;;59.13;41.40;;;5.10;99.90;;;;;;5099825;28;20529;-66
2020/12/09 07:42:27;;;;;;;54.80;40.70;;;5.10;99.90;;;;;;5074335;28;20421;-65
2020/12/09 07:44:53;;;;;;;53.57;39.20;;;5.20;99.90;;;;;;5086678;28;20775;-66
2020/12/09 07:47:26;;;;;;;57.30;39.10;;;5.20;99.90;;;;;;5097097;28;20184;-65
2020/12/09 07:49:54;;;;;;;58.67;42.83;;;5.20;99.90;;;;;;5088542;28;20428;-66
2020/12/09 07:52:23;;;;;;;52.30;39.27;;;5.20;99.90;;;;;;5069087;28;20435;-66
2020/12/09 07:54:52;;;;;;;53.53;38.60;;;5.20;99.90;;;;;;5069050;28;20406;-66
2020/12/09 07:57:18;;;;;;;53.40;39.93;;;5.10;99.90;;;;;;5068867;28;20398;-65
2020/12/09 07:59:44;;;;;;;52.80;39.83;;;5.10;99.90;;;;;;5070217;28;20404;-65
2020/12/09 08:02:27;;;;;;;47.87;38.00;;;5.20;99.90;;;;;;5088865;28;20407;-65
2020/12/09 08:05:16;;;;;;;58.00;42.70;;;5.10;99.90;;;;;;5088790;28;20176;-65
2020/12/09 08:07:47;;;;;;;54.13;41.23;;;5.10;99.90;;;;;;5071120;28;20515;-66
2020/12/09 08:10:12;;;;;;;59.73;43.00;;;5.10;99.90;;;;;;5088538;28;20434;-65
2020/12/09 08:12:41;;;;;;;55.10;40.73;;;5.10;99.90;;;;;;5088326;28;20458;-65
2020/12/09 08:15:07;;;;;;;52.93;40.97;;;5.10;99.90;;;;;;5075554;28;20242;-65
2020/12/09 08:17:34;;;;;;;60.97;44.67;;;5.10;99.90;;;;;;5086913;28;20396;-65
2020/12/09 08:23:01;;;;;;;57.03;43.00;;;5.10;99.90;;;;;;5099216;27;20891;-67
2020/12/09 08:25:29;;;;;;;57.83;41.73;;;5.10;99.90;;;;;;5075625;28;21000;-67
2020/12/09 08:28:04;;;;;;;53.37;41.77;;;5.00;99.90;;;;;;5089278;28;20420;-65
2020/12/09 08:30:29;;;;;;;56.17;41.80;;;5.10;99.90;;;;;;5089858;28;20417;-67
2020/12/09 08:32:59;;;;;;;62.50;44.67;;;5.00;99.90;;;;;;5084732;28;20851;-67
2020/12/09 08:35:26;;;;;;;57.80;43.80;;;5.10;99.90;;;;;;5090129;28;20167;-67
2020/12/09 08:37:52;;;;;;;61.40;44.57;;;5.10;99.90;;;;;;5086179;28;20409;-67
2020/12/09 08:40:18;;;;;;;58.03;43.17;;;5.10;99.90;;;;;;5082697;28;20419;-67
2020/12/09 08:42:51;;;;;;;65.73;45.57;;;5.00;99.90;;;;;;5085012;28;20255;-67
2020/12/09 08:45:16;;;;;;;56.60;43.53;;;5.00;99.90;;;;;;5089507;28;20234;-67
2020/12/09 08:47:42;;;;;;;64.83;46.77;;;5.00;99.90;;;;;;5089129;28;20490;-67
2020/12/09 08:50:08;;;;;;;58.40;43.80;;;5.00;99.90;;;;;;5088503;28;20560;-67
2020/12/09 08:52:33;;;;;;;65.60;43.50;;;5.00;99.90;;;;;;5088935;28;20183;-67
2020/12/09 08:54:59;;;;;;;64.07;46.17;;;5.00;99.90;;;;;;5088436;28;21097;-67
2020/12/09 08:57:24;;;;;;;58.80;45.33;;;5.10;99.90;;;;;;5088901;28;20526;-67
2020/12/09 08:59:50;;;;;;;62.63;47.40;;;5.10;99.90;;;;;;5088471;28;20168;-67
2020/12/09 09:02:15;;;;;;;64.13;45.73;;;5.10;99.90;;;;;;5082435;28;20200;-67
2020/12/09 09:04:40;;;;;;;61.80;47.17;;;5.10;99.90;;;;;;5087746;28;20218;-67
2020/12/09 09:07:06;;;;;;;65.10;45.90;;;5.10;99.90;;;;;;5087963;28;20263;-67
2020/12/09 09:09:32;;;;;;;65.20;48.53;;;5.10;99.90;;;;;;5088180;28;20172;-67
2020/12/09 09:11:58;;;;;;;62.37;44.63;;;5.10;99.90;;;;;;5084131;28;20618;-67
2020/12/09 09:14:24;;;;;;;58.13;43.93;;;5.20;99.90;;;;;;5083598;28;20180;-67
2020/12/09 09:16:49;;;;;;;60.73;45.40;;;5.20;99.90;;;;;;5088273;28;20753;-67
2020/12/09 09:19:15;;;;;;;56.40;44.33;;;5.20;99.90;;;;;;5088597;28;20175;-67
2020/12/09 09:21:41;;;;;;;61.20;45.17;;;5.30;99.90;;;;;;5087782;28;20208;-67
2020/12/09 09:24:06;;;;;;;59.43;44.23;;;5.20;99.90;;;;;;5083591;28;20188;-65
2020/12/09 09:26:33;;;;;;;60.07;45.73;;;5.20;99.90;;;;;;5086253;28;20929;-67
2020/12/09 09:28:59;;;;;;;54.00;42.60;;;5.20;99.90;;;;;;5071676;28;20233;-65
2020/12/09 09:31:24;;;;;;;54.50;44.03;;;5.20;99.90;;;;;;5073561;28;20494;-65
2020/12/09 09:33:50;;;;;;;53.43;42.33;;;5.30;99.90;;;;;;5063778;28;20163;-65
2020/12/09 09:36:15;;;;;;;55.20;43.70;;;5.30;99.90;;;;;;5055155;28;20229;-65
2020/12/09 09:38:41;;;;;;;52.50;40.40;;;5.40;99.90;;;;;;5055241;28;20218;-65
2020/12/09 09:41:06;;;;;;;50.33;39.47;;;5.40;99.90;;;;;;5059043;28;20276;-65
2020/12/09 09:43:32;;;;;;;55.70;41.83;;;5.40;99.90;;;;;;5075062;28;20242;-65
2020/12/09 09:45:59;;;;;;;56.03;42.60;;;5.50;99.90;;;;;;5074375;28;20750;-65
2020/12/09 09:48:25;;;;;;;49.10;38.83;;;5.50;99.90;;;;;;5060385;28;20170;-67
2020/12/09 09:50:51;;;;;;;48.80;38.93;;;5.50;99.90;;;;;;5055042;28;20430;-67
2020/12/09 09:53:16;;;;;;;49.40;40.40;;;5.50;99.90;;;;;;5070927;28;20165;-67
2020/12/09 09:55:42;;;;;;;49.70;38.50;;;5.50;99.90;;;;;;5069513;28;20281;-67
2020/12/09 09:58:07;;;;;;;45.03;36.70;;;5.50;99.90;;;;;;5074773;28;20637;-67
2020/12/09 10:00:33;;;;;;;48.60;40.27;;;5.50;99.90;;;;;;5074328;28;20645;-65
2020/12/09 10:02:58;;;;;;;46.37;39.80;;;5.50;99.90;;;;;;5073920;28;20195;-65
2020/12/09 10:05:24;;;;;;;47.13;37.57;;;5.60;99.90;;;;;;5067515;28;20552;-65
2020/12/09 10:07:50;;;;;;;47.80;37.73;;;5.60;99.90;;;;;;5073055;28;20162;-65
2020/12/09 10:10:16;;;;;;;48.77;38.57;;;5.50;99.90;;;;;;5073725;28;20410;-65
2020/12/09 10:12:41;;;;;;;44.23;37.73;;;5.50;99.90;;;;;;5068531;28;20188;-65
2020/12/09 10:15:07;;;;;;;47.03;38.37;;;5.50;99.90;;;;;;5074363;28;20181;-65
2020/12/09 10:17:32;;;;;;;47.10;37.73;;;5.50;99.90;;;;;;5073689;28;20163;-65
2020/12/09 10:19:59;;;;;;;46.13;39.60;;;5.50;99.90;;;;;;5070467;28;20234;-65
2020/12/09 10:22:24;;;;;;;48.90;38.50;;;5.50;99.90;;;;;;5072461;28;20197;-65
2020/12/09 10:24:50;;;;;;;49.30;38.20;;;5.50;99.90;;;;;;5073991;28;20540;-65
2020/12/09 10:27:15;;;;;;;45.33;36.77;;;5.50;99.90;;;;;;5061862;28;20548;-65
2020/12/09 10:29:42;;;;;;;54.23;40.73;;;5.50;99.90;;;;;;5074137;28;20165;-65
2020/12/09 10:32:08;;;;;;;49.33;38.93;;;5.50;99.90;;;;;;5073151;28;20246;-65
2020/12/09 10:34:35;;;;;;;47.60;39.30;;;5.50;99.90;;;;;;5073026;28;20461;-65
2020/12/09 10:37:01;;;;;;;51.47;41.37;;;5.60;99.90;;;;;;5071530;28;20487;-65
2020/12/09 10:39:26;;;;;;;52.23;41.70;;;5.60;99.90;;;;;;5072884;28;20384;-65
2020/12/09 10:41:52;;;;;;;57.43;41.10;;;5.60;99.90;;;;;;5061925;28;20230;-65
2020/12/09 10:44:19;;;;;;;50.77;40.77;;;5.60;99.90;;;;;;5064617;28;20630;-65
2020/12/09 10:46:45;;;;;;;59.33;43.33;;;5.60;99.90;;;;;;5073164;28;20221;-65
2020/12/09 10:49:12;;;;;;;51.83;42.20;;;5.60;99.90;;;;;;5068173;28;20790;-65
2020/12/09 10:51:54;;;;;;;50.37;40.73;;;5.60;99.90;;;;;;5073281;28;20897;-65
2020/12/09 10:54:19;;;;;;;48.60;38.03;;;5.60;99.90;;;;;;5065871;28;20516;-65
2020/12/09 10:56:45;;;;;;;46.73;38.23;;;5.60;99.90;;;;;;5072512;28;20512;-65
2020/12/09 10:59:11;;;;;;;46.40;37.33;;;5.60;99.90;;;;;;5073338;28;20178;-65
2020/12/09 11:01:36;;;;;;;50.00;38.53;;;5.70;99.90;;;;;;5073613;28;20193;-65
2020/12/09 11:04:03;;;;;;;50.53;40.10;;;5.80;99.90;;;;;;5068169;28;20238;-65
2020/12/09 11:06:31;;;;;;;56.60;40.63;;;5.80;99.90;;;;;;5069046;28;20628;-65
2020/12/09 11:08:57;;;;;;;51.80;42.03;;;5.90;99.90;;;;;;5068019;28;20436;-65
2020/12/09 11:11:25;;;;;;;51.33;40.67;;;5.90;99.90;;;;;;5069696;28;20928;-66
2020/12/09 11:13:51;;;;;;;51.80;41.80;;;5.90;99.90;;;;;;5067321;28;20413;-67
2020/12/09 11:16:18;;;;;;;49.60;41.93;;;5.80;99.90;;;;;;5062003;28;20786;-65
2020/12/09 11:18:44;;;;;;;50.07;39.87;;;5.80;99.90;;;;;;5053265;28;20470;-65
2020/12/09 11:21:10;;;;;;;49.37;39.10;;;5.80;99.90;;;;;;5061116;28;20604;-65
2020/12/09 11:23:36;;;;;;;49.60;40.13;;;5.70;99.90;;;;;;5072570;28;20796;-67
2020/12/09 11:26:01;;;;;;;48.17;38.57;;;5.80;99.90;;;;;;5063278;28;20501;-67
2020/12/09 11:28:27;;;;;;;46.40;38.67;;;5.80;99.90;;;;;;5058905;28;20229;-67
2020/12/09 11:30:53;;;;;;;48.60;39.27;;;5.80;99.90;;;;;;5068994;28;20184;-67
2020/12/09 11:33:18;;;;;;;46.50;39.10;;;5.80;99.90;;;;;;5065155;28;20204;-67
2020/12/09 11:35:44;;;;;;;47.83;37.50;;;5.90;99.90;;;;;;5071372;28;20176;-67
2020/12/09 11:38:10;;;;;;;52.87;38.33;;;5.90;99.90;;;;;;5067116;28;20173;-67
2020/12/09 11:40:35;;;;;;;44.87;37.07;;;5.90;99.90;;;;;;5070424;28;20266;-67
2020/12/09 11:43:01;;;;;;;46.77;37.70;;;5.90;99.90;;;;;;5072721;28;20160;-66
2020/12/09 11:45:26;;;;;;;44.50;36.73;;;5.90;99.90;;;;;;5072223;28;20222;-67
2020/12/09 11:47:52;;;;;;;40.90;35.47;;;5.90;99.90;;;;;;5072782;28;20168;-65
2020/12/09 11:50:17;;;;;;;40.40;33.20;;;5.90;99.90;;;;;;5055043;28;20260;-67
2020/12/09 11:52:43;;;;;;;41.07;34.40;;;5.80;99.90;;;;;;5052760;28;20164;-66
2020/12/09 11:55:11;;;;;;;42.90;36.27;;;5.80;99.90;;;;;;5052225;28;20197;-67
2020/12/09 11:57:36;;;;;;;39.73;33.60;;;5.90;99.90;;;;;;5068901;28;20535;-65
2020/12/09 12:00:03;;;;;;;38.50;31.73;;;5.90;99.90;;;;;;5072677;28;20502;-67
2020/12/09 12:02:28;;;;;;;36.50;32.60;;;5.90;99.90;;;;;;5064769;28;20209;-67
2020/12/09 12:04:56;;;;;;;43.83;36.27;;;5.90;99.90;;;;;;5070564;28;20445;-67
2020/12/09 12:07:22;;;;;;;42.90;36.30;;;5.90;99.90;;;;;;5072526;28;20164;-67
2020/12/09 12:09:48;;;;;;;43.47;35.10;;;6.00;99.90;;;;;;5070891;28;20403;-67
2020/12/09 12:12:13;;;;;;;40.60;33.57;;;6.00;99.90;;;;;;5054277;28;20860;-67
2020/12/09 12:14:39;;;;;;;48.03;36.10;;;6.10;99.90;;;;;;5055103;28;20188;-67
2020/12/09 12:17:08;;;;;;;47.80;35.17;;;6.10;99.90;;;;;;5067045;28;20532;-67
2020/12/09 12:19:35;;;;;;;40.57;32.50;;;6.00;99.90;;;;;;5071819;28;20272;-67
2020/12/09 12:22:00;;;;;;;43.90;34.87;;;6.00;99.90;;;;;;5063191;28;20507;-67
2020/12/09 12:24:26;;;;;;;40.27;33.30;;;6.00;99.90;;;;;;5072341;28;20844;-67
2020/12/09 12:26:51;;;;;;;44.40;35.63;;;5.80;99.90;;;;;;5070947;28;20172;-67
2020/12/09 12:29:17;;;;;;;43.57;34.20;;;5.80;99.90;;;;;;5053807;28;20169;-67
2020/12/09 12:31:42;;;;;;;45.47;36.60;;;5.80;99.90;;;;;;5052380;28;20173;-65
2020/12/09 12:34:08;;;;;;;44.70;35.43;;;5.70;99.90;;;;;;5066556;28;20178;-64
2020/12/09 12:36:33;;;;;;;45.70;35.37;;;5.70;99.90;;;;;;5071620;28;20191;-64
2020/12/09 12:38:59;;;;;;;43.70;34.37;;;5.60;99.90;;;;;;5072774;28;20171;-64
2020/12/09 12:41:24;;;;;;;46.70;35.10;;;5.60;99.90;;;;;;5072105;28;20195;-64
2020/12/09 12:43:51;;;;;;;50.37;36.80;;;5.60;99.90;;;;;;5065491;28;20183;-64
2020/12/09 12:46:17;;;;;;;47.60;37.23;;;5.60;99.90;;;;;;5071972;28;20183;-66
2020/12/09 12:48:42;;;;;;;47.63;38.03;;;5.60;99.90;;;;;;5071511;28;20412;-64
2020/12/09 12:51:08;;;;;;;49.40;38.20;;;5.60;99.90;;;;;;5072228;28;20195;-65
2020/12/09 12:53:34;;;;;;;49.17;36.40;;;5.60;99.90;;;;;;5070355;28;20189;-67
2020/12/09 12:56:00;;;;;;;47.07;34.63;;;5.50;99.90;;;;;;5059351;28;20174;-65
2020/12/09 12:58:28;;;;;;;48.23;38.67;;;5.60;99.90;;;;;;5070929;28;20564;-65
2020/12/09 13:00:53;;;;;;;47.60;38.07;;;5.60;99.90;;;;;;5071285;28;20493;-65
2020/12/09 13:03:19;;;;;;;43.73;36.23;;;5.60;99.90;;;;;;5071318;28;20471;-65